Time;durP1;ratioP1;P1;durP2;ratioP2;P2;SDS_P1;SDS_P2;PMS_P1;PMS_P2;Temp;Humidity;BMP_temperature;BMP_pressure;BME280_temperature;BME280_humidity;BME280_pressure;Samples;Min_cycle;Max_cycle;Signal;HPM_P1;HPM_P2
2023/06/04 00:00:21;;;;;;;4.00;1.90;;;;;;;8.34;61.28;97096.52;109600;1269;22571;-82
2023/06/04 00:03:12;;;;;;;4.40;2.40;;;;;;;8.05;61.61;97095.56;109615;1269;25223;-82
2023/06/04 00:05:43;;;;;;;3.50;2.00;;;;;;;7.87;62.25;97092.90;109553;1266;39223;-82
2023/06/04 00:08:15;;;;;;;2.80;2.10;;;;;;;7.85;62.55;97089.73;109574;1269;22509;-82
2023/06/04 00:10:46;;;;;;;4.30;2.00;;;;;;;7.86;62.82;97090.53;109583;1263;23218;-82
2023/06/04 00:13:17;;;;;;;4.10;1.90;;;;;;;8.03;62.83;97091.65;109525;1266;22524;-81
2023/06/04 00:15:48;;;;;;;3.00;2.10;;;;;;;7.98;62.73;97090.65;109572;1269;22953;-82
2023/06/04 00:18:20;;;;;;;2.80;1.80;;;;;;;8.00;62.89;97091.92;109584;1267;26462;-82
2023/06/04 00:20:51;;;;;;;4.30;2.50;;;;;;;7.88;62.78;97086.99;109598;1250;23269;-82
2023/06/04 00:23:22;;;;;;;4.30;2.40;;;;;;;7.84;63.16;97087.18;109547;1254;22583;-82
2023/06/04 00:25:53;;;;;;;3.80;2.00;;;;;;;7.91;63.24;97087.88;109538;1269;22501;-82
2023/06/04 00:28:25;;;;;;;5.30;2.30;;;;;;;7.69;63.20;97088.40;109533;1266;23313;-82
2023/06/04 00:30:56;;;;;;;6.40;2.60;;;;;;;7.47;63.77;97083.91;109556;1269;22525;-82
2023/06/04 00:33:27;;;;;;;6.30;2.40;;;;;;;7.46;64.20;97085.34;109610;1269;24264;-82
2023/06/04 00:35:58;;;;;;;5.40;2.80;;;;;;;7.62;64.24;97085.48;109567;1269;28609;-82
2023/06/04 00:38:29;;;;;;;5.40;2.20;;;;;;;7.63;64.18;97082.69;109578;1266;22498;-82
2023/06/04 00:41:00;;;;;;;3.00;1.70;;;;;;;7.56;64.23;97079.53;109543;1269;22548;-82
2023/06/04 00:43:32;;;;;;;4.90;2.50;;;;;;;7.51;64.42;97077.80;109614;1266;22511;-82
2023/06/04 00:46:04;;;;;;;3.70;2.00;;;;;;;7.69;64.50;97080.27;109559;1269;22528;-82
2023/06/04 00:48:36;;;;;;;3.70;2.20;;;;;;;7.84;64.33;97074.19;109543;1269;22534;-82
2023/06/04 00:51:08;;;;;;;2.40;1.90;;;;;;;7.97;64.23;97072.46;109603;1263;23860;-82
2023/06/04 00:53:40;;;;;;;4.40;2.10;;;;;;;8.11;64.01;97067.52;109579;1262;22531;-82
2023/06/04 00:56:11;;;;;;;3.50;2.00;;;;;;;8.23;63.89;97072.91;109557;1269;25068;-82
2023/06/04 00:58:42;;;;;;;3.50;2.00;;;;;;;8.34;63.54;97071.09;109565;1263;22595;-82
2023/06/04 01:01:22;;;;;;;4.70;2.60;;;;;;;8.31;63.23;97073.41;109580;1267;22562;-82
2023/06/04 01:03:56;;;;;;;4.20;2.00;;;;;;;8.25;63.03;97071.30;109566;1269;22511;-82
2023/06/04 01:06:36;;;;;;;4.20;2.20;;;;;;;7.96;63.18;97071.63;109545;1266;23344;-82
2023/06/04 01:09:08;;;;;;;3.70;2.20;;;;;;;7.97;63.67;97073.10;109558;1266;22505;-82
2023/06/04 01:11:40;;;;;;;5.20;2.60;;;;;;;7.92;63.50;97071.10;109525;1268;25119;-82
2023/06/04 01:14:12;;;;;;;8.50;2.60;;;;;;;7.69;63.70;97074.30;109619;1269;22491;-82
2023/06/04 01:16:48;;;;;;;4.00;2.40;;;;;;;7.52;64.05;97072.48;109521;1266;24142;-82
2023/06/04 01:19:37;;;;;;;4.10;2.30;;;;;;;7.39;64.37;97072.38;109599;1263;26586;-82
2023/06/04 01:22:20;;;;;;;3.60;2.40;;;;;;;7.42;64.87;97070.58;109559;1266;22509;-82
2023/06/04 01:24:57;;;;;;;5.40;2.20;;;;;;;7.59;64.99;97068.12;109564;1269;23783;-82
2023/06/04 01:27:29;;;;;;;5.20;2.40;;;;;;;7.75;65.03;97068.92;109578;1269;32700;-82
2023/06/04 01:30:01;;;;;;;3.20;2.20;;;;;;;7.85;64.46;97062.15;109528;1266;22560;-82
2023/06/04 01:32:32;;;;;;;3.60;2.00;;;;;;;7.85;64.29;97066.06;109523;1266;22535;-82
2023/06/04 01:35:04;;;;;;;4.80;2.00;;;;;;;7.68;64.04;97064.16;109577;1269;22538;-82
2023/06/04 01:37:35;;;;;;;3.90;2.40;;;;;;;7.47;64.44;97064.14;109567;1266;22553;-82
2023/06/04 01:40:08;;;;;;;3.20;2.10;;;;;;;7.51;64.78;97062.65;109536;1269;22546;-82
2023/06/04 01:42:39;;;;;;;4.30;2.50;;;;;;;7.60;64.66;97065.61;109599;1269;22555;-82
2023/06/04 01:45:13;;;;;;;3.60;2.10;;;;;;;7.66;65.07;97062.67;109557;1269;22529;-82
2023/06/04 01:47:46;;;;;;;4.00;2.40;;;;;;;7.77;64.84;97064.67;109542;1263;22572;-81
2023/06/04 01:50:22;;;;;;;6.20;2.40;;;;;;;7.80;64.57;97063.80;109510;1263;25478;-82
2023/06/04 01:52:56;;;;;;;2.80;1.90;;;;;;;7.58;64.46;97057.45;109534;1269;23888;-82
2023/06/04 01:55:34;;;;;;;5.50;2.60;;;;;;;7.45;64.59;97060.52;109579;1266;33097;-82
2023/06/04 01:58:09;;;;;;;3.50;2.20;;;;;;;7.28;65.01;97060.92;109585;1247;22528;-82
2023/06/04 02:00:42;;;;;;;3.80;2.10;;;;;;;7.17;65.30;97058.98;109553;1262;22672;-82
2023/06/04 02:03:15;;;;;;;3.80;2.00;;;;;;;7.16;65.67;97057.95;109532;1268;22502;-82
2023/06/04 02:05:46;;;;;;;5.00;2.10;;;;;;;7.08;65.63;97058.14;109572;1266;22521;-82
2023/06/04 02:08:19;;;;;;;3.80;2.60;;;;;;;6.96;65.78;97056.77;109520;1264;22524;-82
2023/06/04 02:10:50;;;;;;;3.70;1.90;;;;;;;6.98;66.13;97053.47;109548;1266;22491;-82
2023/06/04 02:13:24;;;;;;;3.60;1.80;;;;;;;7.13;66.29;97057.98;109586;1267;22512;-82
2023/06/04 02:15:56;;;;;;;3.40;2.10;;;;;;;7.19;66.25;97057.42;109519;1269;37271;-82
2023/06/04 02:18:27;;;;;;;4.50;2.30;;;;;;;7.29;66.04;97055.85;109526;1263;23794;-82
2023/06/04 02:21:00;;;;;;;3.50;2.00;;;;;;;7.19;65.99;97058.74;109549;1263;22519;-82
2023/06/04 02:23:31;;;;;;;3.30;2.20;;;;;;;7.13;66.25;97056.61;109592;1269;22593;-82
2023/06/04 02:26:08;;;;;;;4.50;2.20;;;;;;;7.08;66.33;97054.71;109559;1269;24426;-82
2023/06/04 02:28:41;;;;;;;3.10;1.90;;;;;;;7.11;66.54;97058.80;109553;1267;23165;-81
2023/06/04 02:31:12;;;;;;;4.30;2.30;;;;;;;7.19;66.65;97058.84;109597;1269;25407;-82
2023/06/04 02:33:45;;;;;;;3.40;1.90;;;;;;;7.30;66.45;97057.83;109565;1263;22505;-82
2023/06/04 02:36:24;;;;;;;5.20;2.60;;;;;;;7.40;66.37;97055.09;109496;1268;22536;-82
2023/06/04 02:38:56;;;;;;;5.60;2.30;;;;;;;7.51;66.45;97057.23;109586;1262;25536;-82
2023/06/04 02:41:28;;;;;;;2.20;1.70;;;;;;;7.56;66.22;97053.30;109527;1269;22551;-82
2023/06/04 02:44:00;;;;;;;4.60;1.90;;;;;;;7.58;65.68;97048.95;109548;1263;22606;-82
2023/06/04 02:46:36;;;;;;;3.20;1.70;;;;;;;7.57;65.95;97050.00;109503;1262;23645;-82
2023/06/04 02:49:07;;;;;;;4.30;2.90;;;;;;;7.41;65.75;97046.83;109576;1269;23987;-82
2023/06/04 02:51:40;;;;;;;6.90;2.50;;;;;;;7.22;66.00;97046.08;109564;1266;22512;-82
2023/06/04 02:54:16;;;;;;;3.50;2.00;;;;;;;7.09;66.27;97045.91;109364;1269;22511;-82
2023/06/04 02:56:49;;;;;;;4.80;1.90;;;;;;;7.14;66.71;97049.30;109582;1269;22638;-82
2023/06/04 02:59:27;;;;;;;3.30;2.10;;;;;;;7.24;66.93;97049.42;109535;1263;22518;-82
2023/06/04 03:01:59;;;;;;;5.70;2.00;;;;;;;7.27;66.94;97049.50;109566;1269;22747;-82
2023/06/04 03:04:37;;;;;;;3.10;1.90;;;;;;;7.17;66.73;97053.50;109598;1267;22535;-82
2023/06/04 03:07:11;;;;;;;3.40;1.80;;;;;;;7.19;67.12;97052.73;109574;1263;22669;-82
2023/06/04 03:09:42;;;;;;;4.10;1.90;;;;;;;7.26;67.16;97052.29;109543;1269;22532;-82
2023/06/04 03:12:19;;;;;;;3.10;2.10;;;;;;;7.39;67.12;97053.82;109552;1263;23345;-82
2023/06/04 03:14:55;;;;;;;7.50;2.30;;;;;;;7.50;66.95;97053.46;109571;1266;22511;-82
2023/06/04 03:17:27;;;;;;;4.10;2.00;;;;;;;7.63;67.04;97057.19;109545;1267;34725;-82
2023/06/04 03:20:04;;;;;;;5.00;2.40;;;;;;;7.70;66.80;97057.38;109593;1266;22516;-82
2023/06/04 03:22:36;;;;;;;2.20;1.80;;;;;;;7.80;66.71;97055.41;109570;1266;23895;-82
2023/06/04 03:25:11;;;;;;;4.40;2.00;;;;;;;7.68;66.62;97055.61;109567;1267;23918;-82
2023/06/04 03:27:42;;;;;;;3.10;1.70;;;;;;;7.64;66.93;97057.27;109512;1263;53817;-82
2023/06/04 03:30:22;;;;;;;6.50;2.60;;;;;;;7.76;66.93;97053.00;109490;1266;23210;-82
2023/06/04 03:32:53;;;;;;;4.00;2.30;;;;;;;7.91;67.17;97056.73;109582;1263;22561;-82
2023/06/04 03:35:24;;;;;;;5.90;2.10;;;;;;;8.02;67.06;97058.09;109564;1262;22559;-82
2023/06/04 03:37:58;;;;;;;3.10;2.00;;;;;;;8.08;67.08;97056.56;109563;1267;25234;-82
2023/06/04 03:40:33;;;;;;;3.70;1.90;;;;;;;8.20;67.22;97057.89;109541;1269;25393;-82
2023/06/04 03:43:05;;;;;;;4.90;2.00;;;;;;;8.29;67.22;97057.31;109545;1263;22768;-82
2023/06/04 03:45:37;;;;;;;3.70;1.90;;;;;;;8.26;67.07;97059.67;109514;1269;23288;-82
2023/06/04 03:48:16;;;;;;;4.10;2.00;;;;;;;8.23;67.03;97056.07;109559;1262;22606;-82
2023/06/04 03:50:47;;;;;;;;;;;;;;;8.26;67.09;97056.98;109616;1267;22493;-82
2023/06/04 03:53:18;;;;;;;4.10;1.90;;;;;;;8.36;67.12;97058.98;109545;1266;22592;-82
2023/06/04 03:55:49;;;;;;;3.30;2.30;;;;;;;8.53;67.38;97060.08;109527;1269;25147;-82
2023/06/04 03:58:21;;;;;;;3.20;1.80;;;;;;;8.69;67.64;97058.13;109525;1264;22963;-82
2023/06/04 04:00:54;;;;;;;3.60;2.20;;;;;;;8.82;67.43;97056.20;109556;1266;23889;-82
2023/06/04 04:03:25;;;;;;;3.40;2.20;;;;;;;8.95;67.14;97062.19;109510;1263;23471;-82
2023/06/04 04:05:57;;;;;;;4.50;2.20;;;;;;;9.06;67.10;97056.49;109454;1263;168999;-82
2023/06/04 04:08:36;;;;;;;4.80;2.20;;;;;;;9.16;66.83;97058.98;109553;1247;22514;-82
2023/06/04 04:11:12;;;;;;;5.50;2.40;;;;;;;9.27;66.45;97057.85;109334;1254;22495;-82
2023/06/04 04:13:45;;;;;;;3.90;2.30;;;;;;;9.32;66.27;97058.89;109579;1262;23416;-82
2023/06/04 04:16:17;;;;;;;3.70;2.50;;;;;;;9.39;66.42;97057.47;109496;1269;44249;-82
2023/06/04 04:18:59;;;;;;;4.60;2.60;;;;;;;9.50;66.71;97057.36;109560;1266;22501;-82
2023/06/04 04:21:38;;;;;;;6.00;2.80;;;;;;;9.63;66.66;97053.95;109569;1267;22524;-82
2023/06/04 04:24:11;;;;;;;8.20;2.80;;;;;;;9.73;66.69;97052.29;109513;1269;22743;-82
2023/06/04 04:26:42;;;;;;;4.70;2.50;;;;;;;9.83;66.73;97054.31;109524;1269;87081;-82
2023/06/04 04:29:15;;;;;;;5.40;2.20;;;;;;;9.90;66.46;97052.27;109479;1266;22513;-82
2023/06/04 04:31:47;;;;;;;5.60;2.40;;;;;;;9.98;66.60;97052.69;109540;1263;22539;-83
2023/06/04 04:34:21;;;;;;;3.90;2.00;;;;;;;10.06;66.38;97051.65;109589;1265;22505;-82
2023/06/04 04:36:53;;;;;;;3.80;2.20;;;;;;;10.14;66.07;97053.30;109536;1246;28370;-82
2023/06/04 04:39:27;;;;;;;3.10;2.10;;;;;;;10.23;65.96;97054.71;109566;1266;22520;-82
2023/06/04 04:41:59;;;;;;;3.60;2.10;;;;;;;10.33;65.87;97056.25;109522;1266;23297;-82
2023/06/04 04:44:30;;;;;;;5.80;2.30;;;;;;;10.39;65.79;97055.72;109530;1266;22499;-82
2023/06/04 04:47:01;;;;;;;4.40;2.40;;;;;;;10.49;65.70;97058.69;109512;1269;22552;-82
2023/06/04 04:49:33;;;;;;;3.90;2.10;;;;;;;10.59;65.57;97056.09;109517;1269;22546;-83
2023/06/04 04:52:04;;;;;;;4.00;2.10;;;;;;;10.69;65.41;97056.81;109520;1266;22557;-82
2023/06/04 04:54:35;;;;;;;4.80;2.50;;;;;;;10.79;64.78;97063.21;109506;1269;22509;-83
2023/06/04 04:57:07;;;;;;;5.90;2.50;;;;;;;10.92;64.41;97061.17;109503;1269;38806;-82
2023/06/04 04:59:38;;;;;;;5.30;2.20;;;;;;;11.08;64.43;97064.85;109498;1269;22522;-82
2023/06/04 05:02:09;;;;;;;3.20;2.30;;;;;;;11.26;64.71;97063.30;109552;1263;22507;-82
2023/06/04 05:04:40;;;;;;;3.50;2.30;;;;;;;11.49;64.74;97068.85;109559;1263;24541;-82
2023/06/04 05:07:11;;;;;;;4.50;2.00;;;;;;;11.72;64.54;97066.50;109512;1263;34529;-83
2023/06/04 05:09:43;;;;;;;5.60;2.20;;;;;;;12.00;63.92;97070.13;109541;1263;22539;-83
2023/06/04 05:12:14;;;;;;;4.40;2.30;;;;;;;12.33;63.91;97070.81;109540;1269;22509;-82
2023/06/04 05:14:46;;;;;;;4.60;2.30;;;;;;;13.09;64.62;97071.98;109547;1264;25220;-83
2023/06/04 05:17:21;;;;;;;3.80;2.20;;;;;;;14.99;65.04;97069.41;109526;1266;22503;-83
2023/06/04 05:19:52;;;;;;;3.70;2.40;;;;;;;17.14;62.75;97071.79;109579;1267;22533;-83
2023/06/04 05:22:28;;;;;;;5.40;3.50;;;;;;;19.15;60.72;97068.07;109547;1266;23719;-83
2023/06/04 05:25:00;;;;;;;6.00;3.00;;;;;;;20.88;57.58;97060.25;109563;1269;22508;-83
2023/06/04 05:27:32;;;;;;;6.10;2.70;;;;;;;22.32;55.39;97056.80;109493;1269;23776;-82
2023/06/04 05:30:04;;;;;;;6.10;2.80;;;;;;;23.52;52.34;97057.48;109507;1269;22699;-83
2023/06/04 05:32:40;;;;;;;3.70;2.20;;;;;;;24.35;50.36;97061.42;109536;1269;25363;-83
2023/06/04 05:35:12;;;;;;;4.30;2.10;;;;;;;24.93;47.70;97054.48;109572;1269;22505;-83
2023/06/04 05:37:45;;;;;;;7.90;3.00;;;;;;;25.50;45.63;97052.83;109516;1269;22621;-83
2023/06/04 05:40:16;;;;;;;3.80;2.30;;;;;;;25.90;44.17;97054.52;109520;1263;22511;-84
2023/06/04 05:42:48;;;;;;;4.30;1.90;;;;;;;26.48;43.48;97059.09;109538;1269;25286;-83
2023/06/04 05:45:19;;;;;;;2.90;1.90;;;;;;;27.43;42.61;97057.08;109524;1266;24032;-84
2023/06/04 05:47:51;;;;;;;5.80;2.30;;;;;;;28.40;41.29;97058.80;109543;1266;22651;-84
2023/06/04 05:50:22;;;;;;;5.90;2.60;;;;;;;28.64;39.29;97062.64;109496;1267;22518;-84
2023/06/04 05:52:54;;;;;;;6.00;2.60;;;;;;;28.29;37.86;97060.86;109540;1269;23382;-83
2023/06/04 05:55:26;;;;;;;3.10;2.20;;;;;;;28.19;37.29;97069.28;109501;1269;43116;-84
2023/06/04 05:57:57;;;;;;;3.90;2.20;;;;;;;28.55;36.92;97067.98;109575;1247;22516;-84
2023/06/04 06:00:29;;;;;;;4.30;2.30;;;;;;;28.46;35.32;97070.91;109531;1266;25463;-83
2023/06/04 06:03:01;;;;;;;4.90;2.20;;;;;;;28.89;35.58;97069.58;109571;1263;22504;-83
2023/06/04 06:05:33;;;;;;;2.90;2.20;;;;;;;29.86;35.00;97067.91;109498;1269;29933;-84
2023/06/04 06:08:04;;;;;;;4.00;2.10;;;;;;;30.62;33.89;97065.20;109503;1269;22575;-84
2023/06/04 06:10:36;;;;;;;4.80;2.10;;;;;;;31.06;33.12;97065.67;109531;1269;22549;-84
2023/06/04 06:13:07;;;;;;;4.60;2.00;;;;;;;31.44;32.46;97068.08;109555;1266;22598;-84
2023/06/04 06:15:39;;;;;;;4.20;1.80;;;;;;;31.48;31.74;97067.80;109460;1269;39337;-84
2023/06/04 06:18:10;;;;;;;4.70;2.60;;;;;;;31.81;31.50;97069.10;109545;1266;22554;-84
2023/06/04 06:20:42;;;;;;;3.90;1.60;;;;;;;31.90;30.68;97068.69;109515;1269;23490;-84
2023/06/04 06:23:14;;;;;;;3.10;1.60;;;;;;;31.80;30.44;97066.06;109492;1269;22592;-83
2023/06/04 06:25:45;;;;;;;4.60;2.20;;;;;;;31.54;29.83;97070.80;109526;1266;22549;-83
2023/06/04 06:28:17;;;;;;;4.00;1.80;;;;;;;31.25;29.64;97068.77;109523;1267;22565;-84
2023/06/04 06:30:49;;;;;;;3.20;2.20;;;;;;;30.95;29.32;97066.22;109525;1266;24066;-83
2023/06/04 06:33:23;;;;;;;4.50;2.00;;;;;;;30.71;29.14;97061.34;109510;1269;22508;-84
2023/06/04 06:35:54;;;;;;;4.70;1.90;;;;;;;30.59;29.21;97060.76;109479;1269;49628;-84
2023/06/04 06:38:27;;;;;;;3.50;1.90;;;;;;;30.15;28.95;97060.98;109548;1269;22518;-84
2023/06/04 06:40:59;;;;;;;3.20;1.80;;;;;;;29.71;28.90;97060.52;109564;1266;22495;-84
2023/06/04 06:43:31;;;;;;;3.80;1.70;;;;;;;29.51;29.41;97062.73;109576;1269;22558;-84
2023/06/04 06:46:03;;;;;;;4.00;1.90;;;;;;;29.58;29.38;97062.58;109548;1269;26447;-84
2023/06/04 06:48:34;;;;;;;2.20;1.60;;;;;;;29.38;29.06;97066.98;109531;1269;22515;-84
2023/06/04 06:51:06;;;;;;;3.50;1.70;;;;;;;29.24;29.00;97066.36;109566;1269;22493;-85
2023/06/04 06:53:37;;;;;;;3.50;2.00;;;;;;;29.10;28.98;97070.55;109576;1266;22505;-83
2023/06/04 06:56:10;;;;;;;2.80;1.70;;;;;;;28.95;28.75;97075.36;109550;1269;38128;-82
2023/06/04 06:58:42;;;;;;;3.40;1.90;;;;;;;28.22;28.06;97078.34;109491;1269;22491;-83
2023/06/04 07:01:14;;;;;;;2.70;1.50;;;;;;;27.79;29.07;97081.76;109593;1269;22611;-82
2023/06/04 07:03:46;;;;;;;2.50;1.70;;;;;;;27.75;28.70;97081.33;109549;1267;22506;-83
2023/06/04 07:06:18;;;;;;;3.80;1.80;;;;;;;27.54;28.74;97083.48;109420;1266;50009;-83
2023/06/04 07:08:50;;;;;;;3.60;1.60;;;;;;;27.08;28.52;97082.30;109516;1246;23861;-85
2023/06/04 07:11:22;;;;;;;3.00;1.70;;;;;;;26.61;29.08;97083.34;109498;1266;24356;-86
2023/06/04 07:13:54;;;;;;;6.30;1.90;;;;;;;26.25;29.13;97084.89;109571;1269;26530;-87
2023/06/04 07:16:25;;;;;;;3.80;1.90;;;;;;;25.87;28.79;97082.11;109511;1269;26802;-87
2023/06/04 07:18:57;;;;;;;2.80;1.50;;;;;;;25.54;29.85;97084.92;109485;1269;23132;-88
2023/06/04 07:21:28;;;;;;;2.40;1.50;;;;;;;25.71;29.99;97084.11;109542;1266;22534;-85
2023/06/04 07:23:59;;;;;;;4.20;1.90;;;;;;;25.95;30.30;97079.13;109524;1262;22505;-84
2023/06/04 07:26:33;;;;;;;3.00;1.50;;;;;;;26.03;29.87;97079.07;109493;1266;22825;-86
2023/06/04 07:29:07;;;;;;;3.20;1.50;;;;;;;25.99;29.62;97076.23;109606;1266;22512;-84
2023/06/04 07:31:41;;;;;;;3.20;2.00;;;;;;;25.94;29.95;97079.27;109647;1264;22505;-85
2023/06/04 07:34:13;;;;;;;2.30;1.60;;;;;;;25.87;29.76;97083.36;109667;1269;22509;-85
2023/06/04 07:36:44;;;;;;;3.30;1.50;;;;;;;25.91;30.06;97078.91;109526;1269;35642;-85
2023/06/04 07:39:16;;;;;;;3.90;1.60;;;;;;;25.80;29.67;97082.24;109634;1269;22566;-85
2023/06/04 07:41:48;;;;;;;3.50;2.00;;;;;;;25.52;29.71;97081.63;109563;1269;22574;-86
2023/06/04 07:44:19;;;;;;;4.40;2.00;;;;;;;25.48;30.46;97080.94;109464;1269;22527;-85
2023/06/04 07:46:50;;;;;;;5.60;1.90;;;;;;;25.55;30.37;97081.38;109489;1266;22512;-85
2023/06/04 07:49:25;;;;;;;3.20;1.60;;;;;;;25.61;30.41;97077.58;109543;1264;22533;-86
2023/06/04 07:51:56;;;;;;;2.60;1.80;;;;;;;25.62;30.87;97077.06;109657;1264;25414;-85
2023/06/04 07:54:27;;;;;;;4.90;1.90;;;;;;;25.49;31.44;97076.45;109699;1264;22487;-86
2023/06/04 07:56:59;;;;;;;3.20;1.80;;;;;;;25.38;31.24;97077.52;109568;1264;25750;-85
2023/06/04 07:59:30;;;;;;;4.20;1.70;;;;;;;25.25;31.50;97079.88;109569;1267;25398;-85
2023/06/04 08:02:02;;;;;;;4.60;1.80;;;;;;;25.31;32.36;97081.59;109550;1269;22509;-85
2023/06/04 08:04:34;;;;;;;3.10;1.90;;;;;;;25.42;32.24;97079.68;109491;1264;22507;-86
2023/06/04 08:07:06;;;;;;;3.80;2.00;;;;;;;25.39;32.15;97081.11;109486;1269;45008;-86
2023/06/04 08:09:37;;;;;;;3.50;1.80;;;;;;;25.14;32.14;97077.74;109542;1269;22509;-85
2023/06/04 08:12:09;;;;;;;2.80;1.90;;;;;;;24.98;32.33;97084.20;109322;1263;22519;-87
2023/06/04 08:14:41;;;;;;;3.80;1.60;;;;;;;24.93;32.30;97083.47;109550;1269;22569;-85
2023/06/04 08:17:12;;;;;;;4.10;1.80;;;;;;;24.98;33.00;97080.39;109493;1266;40564;-85
2023/06/04 08:19:44;;;;;;;3.20;2.10;;;;;;;25.20;33.34;97083.73;109364;1269;175840;-85
2023/06/04 08:22:15;;;;;;;3.70;1.90;;;;;;;25.30;33.43;97078.56;109590;1269;22533;-85
2023/06/04 08:24:47;;;;;;;4.90;2.00;;;;;;;25.22;32.87;97082.15;109534;1250;22999;-85
2023/06/04 08:27:18;;;;;;;3.80;2.10;;;;;;;25.11;33.07;97087.77;109503;1263;30439;-84
2023/06/04 08:29:52;;;;;;;2.60;2.10;;;;;;;25.08;32.76;97090.75;109564;1262;22504;-84
2023/06/04 08:32:24;;;;;;;6.60;1.60;;;;;;;24.98;32.67;97090.39;109453;1269;22598;-84
2023/06/04 08:34:55;;;;;;;3.80;1.80;;;;;;;24.81;32.48;97086.81;109718;1269;22524;-84
2023/06/04 08:37:26;;;;;;;3.20;1.80;;;;;;;24.72;33.32;97085.79;109648;1269;40899;-84
2023/06/04 08:40:00;;;;;;;3.60;2.20;;;;;;;24.62;33.36;97089.63;109629;1269;22535;-84
2023/06/04 08:42:35;;;;;;;6.00;2.20;;;;;;;24.49;33.85;97088.77;109644;1269;22592;-84
2023/06/04 08:45:12;;;;;;;3.20;1.80;;;;;;;24.22;33.62;97095.45;109636;1269;25040;-84
2023/06/04 08:47:51;;;;;;;3.10;1.60;;;;;;;23.72;32.82;97099.27;109564;1269;24659;-84
2023/06/04 08:50:25;;;;;;;3.90;1.60;;;;;;;23.42;33.68;97101.48;109468;1266;25452;-84
2023/06/04 08:52:57;;;;;;;3.80;1.50;;;;;;;23.30;33.58;97100.33;109554;1267;22516;-84
2023/06/04 08:55:30;;;;;;;4.20;1.40;;;;;;;23.05;33.79;97096.14;109502;1246;23313;-84
2023/06/04 08:58:03;;;;;;;4.30;1.60;;;;;;;22.82;34.09;97096.98;109567;1264;24154;-84
2023/06/04 09:00:35;;;;;;;3.50;2.00;;;;;;;22.64;34.38;97099.42;109542;1263;24252;-85
2023/06/04 09:03:07;;;;;;;3.00;1.30;;;;;;;22.49;33.95;97095.09;109530;1269;22525;-84
2023/06/04 09:05:42;;;;;;;5.40;1.50;;;;;;;22.12;33.32;97098.84;109506;1263;40590;-84
2023/06/04 09:08:15;;;;;;;3.50;1.60;;;;;;;21.73;33.72;97096.24;109563;1269;23265;-86
2023/06/04 09:10:49;;;;;;;4.40;1.70;;;;;;;21.53;34.33;97094.86;109466;1263;22739;-85
2023/06/04 09:13:22;;;;;;;4.50;1.90;;;;;;;21.22;34.56;97097.38;109469;1269;22529;-86
2023/06/04 09:16:03;;;;;;;3.20;1.50;;;;;;;21.19;35.37;97102.05;109517;1264;43228;-85
2023/06/04 09:18:36;;;;;;;2.50;1.50;;;;;;;21.20;34.86;97099.95;109533;1266;23859;-85
2023/06/04 09:21:09;;;;;;;3.60;1.70;;;;;;;20.90;34.38;97099.52;109530;1262;25432;-85
2023/06/04 09:23:47;;;;;;;4.50;1.90;;;;;;;20.67;34.77;97097.09;109585;1269;22567;-85
2023/06/04 09:26:22;;;;;;;3.00;1.40;;;;;;;20.57;34.63;97096.53;109422;1263;98988;-86
2023/06/04 09:28:57;;;;;;;3.80;1.70;;;;;;;20.49;34.93;97099.61;109517;1269;22683;-86
2023/06/04 09:31:35;;;;;;;2.70;2.00;;;;;;;20.40;35.41;97096.88;109531;1264;22508;-85
2023/06/04 09:34:07;;;;;;;4.60;1.30;;;;;;;20.45;35.39;97096.95;109530;1269;23777;-86
2023/06/04 09:36:39;;;;;;;4.10;1.50;;;;;;;20.48;35.73;97098.66;109490;1269;47092;-86
2023/06/04 09:39:19;;;;;;;3.00;1.70;;;;;;;20.57;35.38;97098.54;109557;1264;22519;-87
2023/06/04 09:42:02;;;;;;;2.80;1.40;;;;;;;20.56;35.36;97094.64;109486;1264;22530;-87
2023/06/04 09:44:43;;;;;;;2.00;1.30;;;;;;;20.56;35.46;97095.50;109560;1267;24506;-86
2023/06/04 09:47:15;;;;;;;2.20;1.50;;;;;;;20.50;35.19;97096.98;109510;1264;49117;-86
2023/06/04 09:49:50;;;;;;;4.90;1.60;;;;;;;20.44;35.51;97095.98;109542;1266;22523;-86
2023/06/04 09:52:33;;;;;;;2.30;1.60;;;;;;;20.53;36.12;97097.99;109691;1269;25297;-86
2023/06/04 09:55:05;;;;;;;2.90;1.60;;;;;;;20.67;36.15;97100.43;109746;1264;22516;-85
2023/06/04 09:57:38;;;;;;;3.40;1.60;;;;;;;20.80;35.78;97100.11;109518;1269;51862;-86
2023/06/04 10:00:12;;;;;;;3.30;1.70;;;;;;;20.90;35.52;97101.54;109624;1267;23124;-86
2023/06/04 10:02:47;;;;;;;2.40;1.50;;;;;;;20.84;35.47;97102.69;109576;1269;22522;-86
2023/06/04 10:05:21;;;;;;;2.70;1.80;;;;;;;20.75;35.88;97101.09;109529;1269;22497;-86
2023/06/04 10:07:55;;;;;;;5.40;1.50;;;;;;;20.67;36.15;97100.17;109596;1269;22501;-86
2023/06/04 10:10:28;;;;;;;2.10;1.50;;;;;;;20.79;36.99;97100.61;109651;1269;22575;-87
2023/06/04 10:13:19;;;;;;;2.80;1.90;;;;;;;20.93;36.81;97100.55;109503;1266;22559;-86
2023/06/04 10:15:51;;;;;;;4.50;1.70;;;;;;;20.90;35.89;97101.55;109501;1269;67315;-87
2023/06/04 10:18:24;;;;;;;3.10;1.70;;;;;;;20.57;35.91;97105.08;109484;1264;22511;-87
2023/06/04 10:20:59;;;;;;;3.60;1.60;;;;;;;20.48;36.31;97102.88;109557;1268;26426;-87
2023/06/04 10:23:31;;;;;;;3.40;1.60;;;;;;;20.41;36.40;97109.12;109507;1263;22606;-87
2023/06/04 10:26:05;;;;;;;2.40;1.40;;;;;;;20.27;36.08;97109.16;109512;1264;76958;-86
2023/06/04 10:28:37;;;;;;;2.10;1.60;;;;;;;20.15;36.93;97109.38;109533;1267;22515;-87
2023/06/04 10:31:10;;;;;;;3.70;1.50;;;;;;;20.30;37.64;97111.60;109557;1269;23872;-86
2023/06/04 10:33:41;;;;;;;2.10;1.50;;;;;;;20.53;38.06;97108.86;109476;1269;22523;-87
2023/06/04 10:36:25;;;;;;;3.80;1.80;;;;;;;20.65;37.27;97107.41;109456;1269;55939;-87
2023/06/04 10:38:57;;;;;;;2.10;1.60;;;;;;;20.44;36.16;97103.73;109555;1269;22511;-87
2023/06/04 10:41:29;;;;;;;5.30;1.50;;;;;;;20.25;36.31;97100.11;109559;1269;24206;-86
2023/06/04 10:44:05;;;;;;;3.60;1.90;;;;;;;20.29;36.78;97098.65;109460;1269;23809;-86
2023/06/04 10:46:43;;;;;;;2.60;1.70;;;;;;;20.32;36.64;97096.75;109515;1269;103197;-86
2023/06/04 10:49:15;;;;;;;2.70;1.80;;;;;;;20.44;37.10;97090.74;109487;1264;22515;-88
2023/06/04 10:51:47;;;;;;;3.70;1.80;;;;;;;20.45;36.85;97091.80;109539;1264;22522;-88
2023/06/04 10:54:26;;;;;;;3.50;1.20;;;;;;;20.38;36.40;97092.89;109297;1266;22552;-87
2023/06/04 10:56:58;;;;;;;3.80;1.90;;;;;;;20.27;36.51;97084.62;108023;1269;2059702;-89
2023/06/04 10:59:32;;;;;;;4.70;2.10;;;;;;;20.26;36.87;97088.67;109554;1269;22515;-86
2023/06/04 11:02:09;;;;;;;3.30;1.80;;;;;;;20.28;36.93;97085.91;109544;1269;22569;-85
2023/06/04 11:04:43;;;;;;;2.10;1.60;;;;;;;20.39;37.48;97087.10;109539;1264;26856;-85
2023/06/04 11:07:15;;;;;;;2.30;1.90;;;;;;;20.53;38.25;97086.68;109450;1269;54463;-86
2023/06/04 11:09:53;;;;;;;3.60;1.80;;;;;;;20.63;38.20;97082.05;109526;1264;22529;-86
2023/06/04 11:12:25;;;;;;;3.70;1.90;;;;;;;20.74;38.11;97077.27;109525;1269;23256;-86
2023/06/04 11:14:59;;;;;;;4.40;2.00;;;;;;;20.85;38.65;97081.95;109581;1264;24239;-88
2023/06/04 11:17:31;;;;;;;4.30;1.70;;;;;;;20.91;38.28;97085.69;109610;1264;57941;-88
2023/06/04 11:20:06;;;;;;;3.60;2.10;;;;;;;20.91;37.84;97086.02;109622;1269;22524;-86
2023/06/04 11:22:39;;;;;;;2.30;1.50;;;;;;;20.81;37.60;97087.66;109654;1263;23912;-87
2023/06/04 11:25:12;;;;;;;2.60;1.70;;;;;;;20.58;37.50;97087.23;109546;1269;22607;-86
2023/06/04 11:27:47;;;;;;;2.70;1.80;;;;;;;20.46;37.92;97088.26;108079;1264;2015142;-87
2023/06/04 11:30:21;;;;;;;3.40;2.00;;;;;;;20.30;37.91;97085.03;109274;1270;24513;-87
2023/06/04 11:33:00;;;;;;;3.30;1.70;;;;;;;20.30;38.83;97089.21;109503;1267;23745;-88
2023/06/04 11:35:32;;;;;;;3.80;2.20;;;;;;;20.43;38.88;97085.27;109486;1269;53331;-87
2023/06/04 11:38:03;;;;;;;5.70;2.00;;;;;;;20.50;39.12;97090.96;109572;1269;22504;-88
2023/06/04 11:40:34;;;;;;;5.60;1.90;;;;;;;20.61;39.09;97090.75;109519;1269;22605;-86
2023/06/04 11:43:06;;;;;;;3.40;1.70;;;;;;;20.61;38.81;97084.83;109534;1263;22512;-89
2023/06/04 11:45:38;;;;;;;2.30;1.50;;;;;;;20.60;39.19;97087.19;108150;1269;1993598;-88
2023/06/04 11:48:13;;;;;;;3.40;2.10;;;;;;;20.63;38.98;97083.29;109624;1247;22552;-89
2023/06/04 11:50:45;;;;;;;1.90;1.50;;;;;;;20.60;38.83;97081.10;109544;1266;26539;-86
2023/06/04 11:53:16;;;;;;;3.20;1.70;;;;;;;20.54;38.38;97088.13;109493;1264;22620;-86
2023/06/04 11:55:49;;;;;;;3.80;1.80;;;;;;;20.41;38.53;97085.15;109498;1269;66400;-85